Time;durP1;ratioP1;P1;durP2;ratioP2;P2;SDS_P1;SDS_P2;PMS_P1;PMS_P2;Temp;Humidity;BMP_temperature;BMP_pressure;BME280_temperature;BME280_humidity;BME280_pressure;Samples;Min_cycle;Max_cycle;Signal;HPM_P1;HPM_P2
2022/01/02 00:01:38;;;;;;;3.25;2.28;;;;;18.00;101550.00;;;;5047178;28;20215;-84
2022/01/02 00:04:07;;;;;;;3.67;2.50;;;;;18.00;101550.00;;;;5046886;28;20203;-84
2022/01/02 00:06:40;;;;;;;4.38;2.35;;;;;18.00;101551.00;;;;5047356;28;20203;-84
2022/01/02 00:09:08;;;;;;;5.15;2.60;;;;;18.00;101576.00;;;;5047363;28;20208;-84
2022/01/02 00:11:38;;;;;;;3.60;2.25;;;;;18.00;101580.00;;;;5047039;28;20203;-84
2022/01/02 00:14:11;;;;;;;5.65;2.65;;;;;17.90;101576.00;;;;5047030;28;20208;-84
2022/01/02 00:16:39;;;;;;;4.03;2.58;;;;;17.90;101575.00;;;;5046895;28;20239;-84
2022/01/02 00:19:19;;;;;;;3.72;2.33;;;;;17.90;101568.00;;;;5048401;28;20580;-85
2022/01/02 00:21:48;;;;;;;5.50;2.50;;;;;17.90;101568.00;;;;5050923;28;20619;-84
2022/01/02 00:24:19;;;;;;;3.45;2.33;;;;;17.90;101570.00;;;;5050272;28;20195;-84
2022/01/02 00:26:49;;;;;;;4.03;2.20;;;;;17.80;101576.00;;;;5030519;28;20675;-85
2022/01/02 00:29:20;;;;;;;2.97;1.88;;;;;17.80;101561.00;;;;5032827;28;20286;-85
2022/01/02 00:31:48;;;;;;;5.38;2.70;;;;;17.80;101551.00;;;;5051135;28;20195;-84
2022/01/02 00:34:16;;;;;;;2.65;2.13;;;;;17.80;101547.00;;;;5050450;28;20238;-85
2022/01/02 00:36:44;;;;;;;4.45;2.30;;;;;17.80;101531.00;;;;5042546;28;20247;-84
2022/01/02 00:39:11;;;;;;;3.88;2.45;;;;;17.80;101534.00;;;;5030241;28;20211;-85
2022/01/02 00:41:44;;;;;;;4.85;2.58;;;;;17.70;101535.00;;;;5046293;28;20200;-85
2022/01/02 00:44:22;;;;;;;3.20;1.92;;;;;17.70;101514.00;;;;5050204;28;20207;-84
2022/01/02 00:46:58;;;;;;;3.40;1.98;;;;;17.70;101503.00;;;;5050225;28;20206;-84
2022/01/02 00:49:26;;;;;;;3.40;1.90;;;;;17.70;101503.00;;;;5050014;28;20207;-84
2022/01/02 00:52:04;;;;;;;3.50;2.20;;;;;17.60;101487.00;;;;5050804;28;20203;-84
2022/01/02 00:54:34;;;;;;;3.92;2.10;;;;;17.70;101509.00;;;;5049901;28;20210;-84
2022/01/02 00:57:05;;;;;;;3.78;2.00;;;;;17.60;101510.00;;;;5050480;28;20230;-84
2022/01/02 00:59:47;;;;;;;3.42;2.15;;;;;17.60;101504.00;;;;5050600;28;20200;-83
2022/01/02 01:02:19;;;;;;;2.95;2.03;;;;;17.60;101519.00;;;;5050618;28;20572;-84
2022/01/02 01:04:49;;;;;;;5.70;2.45;;;;;17.60;101519.00;;;;5050627;28;20196;-84
2022/01/02 01:07:19;;;;;;;3.15;2.17;;;;;17.50;101512.00;;;;5049589;28;20257;-84
2022/01/02 01:09:49;;;;;;;4.63;1.77;;;;;17.50;101522.00;;;;5050641;28;20204;-85
2022/01/02 01:12:17;;;;;;;4.95;2.05;;;;;17.50;101511.00;;;;5030440;28;20732;-85
2022/01/02 01:14:47;;;;;;;4.18;1.98;;;;;17.50;101507.00;;;;5029651;28;20207;-84
2022/01/02 01:17:16;;;;;;;3.55;2.13;;;;;17.50;101510.00;;;;5030213;28;20231;-84
2022/01/02 01:19:43;;;;;;;4.03;2.15;;;;;17.50;101514.00;;;;5029403;28;20204;-84
2022/01/02 01:22:11;;;;;;;3.42;2.13;;;;;17.50;101496.00;;;;5029777;28;20666;-84
2022/01/02 01:24:38;;;;;;;3.72;2.20;;;;;17.50;101489.00;;;;5029963;28;20662;-83
2022/01/02 01:27:08;;;;;;;3.47;2.00;;;;;17.40;101490.00;;;;5048120;28;20649;-84
2022/01/02 01:29:36;;;;;;;3.83;2.20;;;;;17.40;101480.00;;;;5031582;28;20207;-84
2022/01/02 01:32:06;;;;;;;2.72;1.90;;;;;17.40;101463.00;;;;5048894;28;20200;-84
2022/01/02 01:34:34;;;;;;;3.92;2.42;;;;;17.40;101464.00;;;;5049592;28;20194;-84
2022/01/02 01:37:02;;;;;;;4.28;2.10;;;;;17.40;101471.00;;;;5048960;28;20219;-83
2022/01/02 01:39:29;;;;;;;3.60;2.00;;;;;17.40;101465.00;;;;5049469;28;20204;-83
2022/01/02 01:42:06;;;;;;;3.55;2.03;;;;;17.40;101455.00;;;;5030004;28;20239;-84
2022/01/02 01:44:51;;;;;;;5.47;1.90;;;;;17.40;101445.00;;;;5034952;28;20297;-84
2022/01/02 01:47:20;;;;;;;3.15;2.20;;;;;17.40;101429.00;;;;5048899;28;20208;-84
2022/01/02 01:49:47;;;;;;;3.08;1.80;;;;;17.40;101422.00;;;;5048658;28;20974;-83
2022/01/02 01:52:14;;;;;;;3.45;2.10;;;;;17.40;101419.00;;;;5049370;28;20211;-84
2022/01/02 01:54:41;;;;;;;4.10;2.00;;;;;17.40;101415.00;;;;5048516;28;20211;-83
2022/01/02 01:57:09;;;;;;;3.78;1.95;;;;;17.40;101420.00;;;;5048946;28;20227;-83
2022/01/02 01:59:36;;;;;;;7.82;3.28;;;;;17.40;101420.00;;;;5049276;28;20661;-84
2022/01/02 02:02:03;;;;;;;3.83;2.10;;;;;17.40;101414.00;;;;5048111;28;20223;-83
2022/01/02 02:04:32;;;;;;;6.18;2.38;;;;;17.40;101401.00;;;;5049742;28;20580;-84
2022/01/02 02:07:00;;;;;;;3.97;1.58;;;;;17.40;101406.00;;;;5049450;28;20215;-84
2022/01/02 02:09:33;;;;;;;6.22;2.17;;;;;17.50;101387.00;;;;5049180;28;20212;-84
2022/01/02 02:12:01;;;;;;;4.43;1.55;;;;;17.50;101383.00;;;;5049503;28;20584;-83
2022/01/02 02:14:28;;;;;;;4.90;1.90;;;;;17.50;101375.00;;;;5049697;28;20211;-84
2022/01/02 02:16:56;;;;;;;8.82;2.38;;;;;17.50;101378.00;;;;5048853;28;20234;-84
2022/01/02 02:19:23;;;;;;;3.17;1.75;;;;;17.50;101393.00;;;;5048114;28;20246;-83
2022/01/02 02:21:51;;;;;;;4.43;2.00;;;;;17.50;101384.00;;;;5049454;28;20203;-83
2022/01/02 02:24:19;;;;;;;3.90;1.75;;;;;17.50;101374.00;;;;5048790;28;20199;-83
2022/01/02 02:26:48;;;;;;;2.83;1.70;;;;;17.50;101383.00;;;;5031563;28;20207;-84
2022/01/02 02:29:15;;;;;;;5.95;2.03;;;;;17.50;101385.00;;;;5029662;28;20266;-84
2022/01/02 02:31:43;;;;;;;3.58;2.05;;;;;17.60;101383.00;;;;5048909;28;20214;-83
2022/01/02 02:34:10;;;;;;;4.65;2.15;;;;;17.60;101381.00;;;;5049264;28;20206;-84
2022/01/02 02:36:37;;;;;;;3.70;1.85;;;;;17.60;101360.00;;;;5034463;28;20635;-84
2022/01/02 02:39:06;;;;;;;4.93;1.73;;;;;17.60;101352.00;;;;5038436;28;20226;-84
2022/01/02 02:41:36;;;;;;;2.53;1.30;;;;;17.60;101349.00;;;;5048891;28;20204;-84
2022/01/02 02:44:08;;;;;;;4.25;1.90;;;;;17.60;101345.00;;;;5049302;28;20211;-84
2022/01/02 02:49:19;;;;;;;2.33;1.73;;;;;17.70;101352.00;;;;5017262;28;20595;-84
2022/01/02 02:51:54;;;;;;;2.63;1.65;;;;;17.70;101341.00;;;;5048168;28;20204;-83
2022/01/02 02:54:25;;;;;;;3.70;1.73;;;;;17.70;101343.00;;;;5028535;28;20737;-84
2022/01/02 02:56:56;;;;;;;3.58;1.63;;;;;17.70;101329.00;;;;5029381;28;20196;-84
2022/01/02 02:59:25;;;;;;;2.72;1.67;;;;;17.70;101334.00;;;;5028467;28;20254;-83
2022/01/02 03:01:53;;;;;;;3.53;1.60;;;;;17.80;101326.00;;;;5028476;28;20220;-83
2022/01/02 03:04:20;;;;;;;2.95;1.50;;;;;17.80;101314.00;;;;5029138;28;20208;-83
2022/01/02 03:06:48;;;;;;;4.65;2.13;;;;;17.80;101301.00;;;;5027974;28;20215;-83
2022/01/02 03:09:21;;;;;;;3.20;1.48;;;;;17.80;101302.00;;;;5029179;28;20210;-84
2022/01/02 03:11:50;;;;;;;3.78;1.55;;;;;17.80;101300.00;;;;5029348;28;20239;-83
2022/01/02 03:14:17;;;;;;;1.98;1.45;;;;;17.90;101303.00;;;;5028033;28;20189;-83
2022/01/02 03:16:45;;;;;;;3.72;1.70;;;;;17.90;101321.00;;;;5028367;28;20239;-84
2022/01/02 03:19:12;;;;;;;10.32;1.83;;;;;17.90;101327.00;;;;5028312;28;20228;-83
2022/01/02 03:21:39;;;;;;;3.63;1.70;;;;;17.90;101343.00;;;;5028100;28;20207;-83
2022/01/02 03:24:06;;;;;;;4.82;1.73;;;;;17.90;101338.00;;;;5042716;28;20719;-84
2022/01/02 03:26:33;;;;;;;4.25;1.88;;;;;18.00;101330.00;;;;5046952;28;20207;-84
2022/01/02 03:29:02;;;;;;;3.45;1.38;;;;;18.00;101317.00;;;;5048741;28;20198;-83
2022/01/02 03:31:29;;;;;;;5.75;1.65;;;;;18.00;101308.00;;;;5047119;28;20234;-84
2022/01/02 03:33:57;;;;;;;3.78;1.38;;;;;18.00;101302.00;;;;5047867;28;20737;-84
2022/01/02 03:36:24;;;;;;;6.55;1.67;;;;;18.00;101301.00;;;;5048141;28;20215;-84
2022/01/02 03:38:52;;;;;;;3.35;1.45;;;;;18.00;101306.00;;;;5047757;28;20256;-84
2022/01/02 03:41:19;;;;;;;3.60;1.50;;;;;18.10;101299.00;;;;5047845;28;20203;-83
2022/01/02 03:43:46;;;;;;;3.92;1.92;;;;;18.10;101301.00;;;;5046829;28;20195;-84
2022/01/02 03:46:15;;;;;;;3.67;1.85;;;;;18.10;101305.00;;;;5047869;28;20210;-84
2022/01/02 03:48:42;;;;;;;1.92;1.27;;;;;18.10;101287.00;;;;5047171;28;20207;-84
2022/01/02 03:51:09;;;;;;;4.65;1.67;;;;;18.10;101280.00;;;;5047480;28;20211;-84
2022/01/02 03:53:36;;;;;;;9.45;1.98;;;;;18.10;101281.00;;;;5048873;28;20211;-84
2022/01/02 03:56:04;;;;;;;6.40;1.92;;;;;18.10;101276.00;;;;5051998;28;20194;-84
2022/01/02 03:58:31;;;;;;;4.45;1.75;;;;;18.10;101262.00;;;;5050662;28;20230;-84
2022/01/02 04:00:59;;;;;;;2.38;1.33;;;;;18.10;101247.00;;;;5042704;28;20223;-84
2022/01/02 04:03:27;;;;;;;2.78;1.58;;;;;18.10;101256.00;;;;5031929;28;20211;-84
2022/01/02 04:05:54;;;;;;;4.20;1.35;;;;;18.20;101252.00;;;;5031653;28;20204;-84
2022/01/02 04:08:22;;;;;;;3.97;1.50;;;;;18.20;101242.00;;;;5030762;28;20219;-84
2022/01/02 04:10:49;;;;;;;2.88;1.27;;;;;18.20;101240.00;;;;5031436;28;20646;-84
2022/01/02 04:13:16;;;;;;;4.03;1.13;;;;;18.20;101245.00;;;;5031002;28;20677;-84
2022/01/02 04:15:43;;;;;;;3.50;1.77;;;;;18.20;101245.00;;;;5030839;28;20217;-83
2022/01/02 04:18:11;;;;;;;3.08;1.40;;;;;18.20;101255.00;;;;5031181;28;20236;-84
2022/01/02 04:20:39;;;;;;;6.93;1.80;;;;;18.20;101253.00;;;;5031679;28;20205;-83
2022/01/02 04:23:06;;;;;;;5.70;1.30;;;;;18.30;101249.00;;;;5031221;28;20227;-84
2022/01/02 04:25:34;;;;;;;3.92;1.58;;;;;18.30;101247.00;;;;5031226;28;20212;-83
2022/01/02 04:28:01;;;;;;;2.55;1.50;;;;;18.30;101240.00;;;;5031477;28;20203;-84
2022/01/02 04:30:29;;;;;;;3.75;1.65;;;;;18.20;101241.00;;;;5039546;28;20210;-84
2022/01/02 04:32:56;;;;;;;5.97;1.60;;;;;18.20;101231.00;;;;5051382;28;20211;-84
2022/01/02 04:35:23;;;;;;;2.70;1.40;;;;;18.20;101232.00;;;;5038212;28;20208;-84
2022/01/02 04:37:52;;;;;;;3.65;1.60;;;;;18.20;101238.00;;;;5030617;28;20228;-83
2022/01/02 04:40:19;;;;;;;4.53;1.67;;;;;18.20;101225.00;;;;5031203;28;20197;-83
2022/01/02 04:42:46;;;;;;;2.47;1.25;;;;;18.20;101242.00;;;;5030967;28;20193;-84
2022/01/02 04:45:13;;;;;;;2.47;1.42;;;;;18.20;101233.00;;;;5031137;28;20218;-83
2022/01/02 04:47:41;;;;;;;5.78;1.30;;;;;18.20;101231.00;;;;5031028;28;20197;-84
2022/01/02 04:50:09;;;;;;;3.75;1.63;;;;;18.20;101223.00;;;;5041247;28;20207;-83
2022/01/02 04:52:36;;;;;;;3.00;1.52;;;;;18.20;101238.00;;;;5049951;28;20210;-84
2022/01/02 04:55:06;;;;;;;4.57;1.67;;;;;18.10;101223.00;;;;5050945;28;20195;-84
2022/01/02 04:57:34;;;;;;;7.75;2.47;;;;;18.20;101219.00;;;;5050267;28;20202;-84
2022/01/02 05:00:01;;;;;;;3.70;1.23;;;;;18.10;101219.00;;;;5051246;28;20203;-83
2022/01/02 05:02:28;;;;;;;2.20;1.23;;;;;18.10;101207.00;;;;5050024;28;20216;-83
2022/01/02 05:04:56;;;;;;;6.88;2.38;;;;;18.10;101200.00;;;;5050501;28;20689;-83
2022/01/02 05:07:23;;;;;;;2.58;1.40;;;;;18.10;101194.00;;;;5051213;28;20196;-83
2022/01/02 05:09:50;;;;;;;2.10;1.48;;;;;18.10;101181.00;;;;5049456;28;20211;-83
2022/01/02 05:12:19;;;;;;;5.53;1.80;;;;;18.10;101181.00;;;;5050037;28;20249;-82
2022/01/02 05:14:46;;;;;;;3.22;1.40;;;;;18.00;101167.00;;;;5050569;28;20207;-84
2022/01/02 05:17:13;;;;;;;7.05;1.80;;;;;18.00;101172.00;;;;5049878;28;20231;-82
2022/01/02 05:19:41;;;;;;;2.00;1.30;;;;;18.00;101165.00;;;;5050005;28;20237;-84
2022/01/02 05:22:08;;;;;;;2.75;1.48;;;;;18.00;101161.00;;;;5050489;28;20210;-83
2022/01/02 05:24:35;;;;;;;3.38;1.55;;;;;18.00;101154.00;;;;5049927;28;20200;-83
2022/01/02 05:27:03;;;;;;;2.28;1.27;;;;;18.00;101153.00;;;;5031048;28;20678;-84
2022/01/02 05:29:31;;;;;;;2.38;1.63;;;;;18.00;101147.00;;;;5030368;28;20199;-83
2022/01/02 05:31:58;;;;;;;3.33;1.33;;;;;18.00;101148.00;;;;5049677;28;20203;-84
2022/01/02 05:34:26;;;;;;;2.25;1.20;;;;;18.00;101141.00;;;;5050345;28;20218;-84
2022/01/02 05:36:53;;;;;;;2.35;1.50;;;;;18.00;101144.00;;;;5049894;28;20748;-84
2022/01/02 05:39:21;;;;;;;2.63;1.48;;;;;18.00;101132.00;;;;5050202;28;20223;-84
2022/01/02 05:41:49;;;;;;;5.68;1.83;;;;;18.00;101134.00;;;;5049792;28;20211;-83
2022/01/02 05:44:16;;;;;;;2.28;1.48;;;;;18.00;101119.00;;;;5030356;28;20658;-84
2022/01/02 05:46:45;;;;;;;4.63;1.52;;;;;17.90;101124.00;;;;5030058;28;20210;-84
2022/01/02 05:49:13;;;;;;;3.80;1.25;;;;;17.90;101110.00;;;;5029434;28;20208;-84
2022/01/02 05:51:40;;;;;;;2.60;1.45;;;;;17.90;101119.00;;;;5029975;28;20208;-83
2022/01/02 05:54:08;;;;;;;3.80;1.42;;;;;17.90;101104.00;;;;5030107;28;20246;-85
2022/01/02 05:56:36;;;;;;;3.40;1.70;;;;;17.90;101085.00;;;;5030177;28;20604;-83
2022/01/02 05:59:04;;;;;;;3.33;1.30;;;;;17.90;101065.00;;;;5030210;28;20228;-84
2022/01/02 06:01:31;;;;;;;4.47;1.40;;;;;17.90;101064.00;;;;5038619;28;20211;-83
2022/01/02 06:04:00;;;;;;;3.83;1.77;;;;;17.90;101048.00;;;;5049799;28;20192;-84
2022/01/02 06:06:27;;;;;;;1.58;1.15;;;;;17.90;101039.00;;;;5049547;28;20211;-84
2022/01/02 06:08:54;;;;;;;2.22;1.20;;;;;17.90;101036.00;;;;5049805;28;20199;-84
2022/01/02 06:11:22;;;;;;;4.07;1.67;;;;;17.80;101028.00;;;;5049368;28;20204;-84
2022/01/02 06:13:49;;;;;;;5.78;2.20;;;;;17.80;101028.00;;;;5048712;28;20592;-84
2022/01/02 06:16:16;;;;;;;4.38;1.40;;;;;17.80;101027.00;;;;5045389;28;20208;-83
2022/01/02 06:18:44;;;;;;;1.98;1.10;;;;;17.80;101024.00;;;;5028813;28;20228;-83
2022/01/02 06:21:12;;;;;;;3.33;1.65;;;;;17.80;101020.00;;;;5030639;28;20195;-83
2022/01/02 06:23:40;;;;;;;3.30;1.70;;;;;17.80;101007.00;;;;5047276;28;20203;-84
2022/01/02 06:26:07;;;;;;;4.78;1.85;;;;;17.80;100997.00;;;;5048426;28;20214;-84
2022/01/02 06:28:35;;;;;;;3.55;1.77;;;;;17.80;100988.00;;;;5030226;28;20223;-84
2022/01/02 06:31:02;;;;;;;3.35;1.50;;;;;17.80;100975.00;;;;5040558;28;20207;-84
2022/01/02 06:33:29;;;;;;;2.65;1.50;;;;;17.80;100981.00;;;;5043543;28;20205;-84
2022/01/02 06:35:56;;;;;;;2.65;1.33;;;;;17.80;100973.00;;;;5029047;28;20192;-84
2022/01/02 06:38:25;;;;;;;2.95;1.50;;;;;17.80;100962.00;;;;5029100;28;20212;-83
2022/01/02 06:40:52;;;;;;;3.85;1.40;;;;;17.80;100962.00;;;;5028889;28;20196;-83
2022/01/02 06:43:20;;;;;;;5.28;1.75;;;;;17.80;100963.00;;;;5029354;28;20188;-84
2022/01/02 06:45:48;;;;;;;1.73;1.20;;;;;17.80;100946.00;;;;5028538;28;20405;-83
2022/01/02 06:48:16;;;;;;;1.80;1.23;;;;;17.80;100958.00;;;;5028172;28;20203;-84
2022/01/02 06:50:43;;;;;;;2.67;1.35;;;;;17.80;100971.00;;;;5029781;28;20215;-84
2022/01/02 06:53:11;;;;;;;4.90;1.38;;;;;17.80;100957.00;;;;5028690;28;20757;-84
2022/01/02 06:55:39;;;;;;;2.67;1.20;;;;;17.80;100943.00;;;;5028597;28;20192;-84
2022/01/02 06:58:06;;;;;;;1.92;1.20;;;;;17.80;100937.00;;;;5029210;28;20196;-84
2022/01/02 07:00:34;;;;;;;2.00;1.25;;;;;17.80;100940.00;;;;5028498;28;20322;-83
2022/01/02 07:03:01;;;;;;;5.53;2.45;;;;;17.80;100932.00;;;;5029343;28;20207;-84
2022/01/02 07:05:28;;;;;;;3.65;1.50;;;;;17.70;100936.00;;;;5031275;28;20195;-83
2022/01/02 07:07:55;;;;;;;3.30;1.50;;;;;17.70;100933.00;;;;5039584;28;20203;-83
2022/01/02 07:10:23;;;;;;;2.00;1.20;;;;;17.70;100917.00;;;;5028722;28;20208;-84
2022/01/02 07:12:52;;;;;;;2.75;1.13;;;;;17.70;100916.00;;;;5045064;28;20203;-83
2022/01/02 07:15:19;;;;;;;2.90;1.25;;;;;17.70;100912.00;;;;5048460;28;20596;-84
2022/01/02 07:17:46;;;;;;;3.47;1.50;;;;;17.70;100896.00;;;;5047780;28;20231;-84
2022/01/02 07:20:14;;;;;;;3.72;1.45;;;;;17.70;100902.00;;;;5047503;28;20231;-84
2022/01/02 07:22:42;;;;;;;1.92;1.02;;;;;17.70;100898.00;;;;5048562;28;20207;-84
2022/01/02 07:25:10;;;;;;;2.15;1.38;;;;;17.70;100910.00;;;;5042281;28;20199;-84
2022/01/02 07:27:38;;;;;;;1.90;1.13;;;;;17.70;100910.00;;;;5048576;28;20200;-84
2022/01/02 07:30:09;;;;;;;2.88;1.52;;;;;17.60;100906.00;;;;5052511;28;20420;-84
2022/01/02 07:32:37;;;;;;;4.82;1.48;;;;;17.70;100906.00;;;;5051415;28;20701;-84
2022/01/02 07:35:06;;;;;;;2.05;0.93;;;;;17.70;100908.00;;;;5053045;28;20696;-84
2022/01/02 07:37:33;;;;;;;2.00;1.27;;;;;17.60;100915.00;;;;5052219;28;20211;-84
2022/01/02 07:40:01;;;;;;;5.85;1.90;;;;;17.60;100918.00;;;;5052959;28;20231;-83
2022/01/02 07:42:28;;;;;;;1.55;1.10;;;;;17.60;100927.00;;;;5038741;28;20208;-85
2022/01/02 07:44:55;;;;;;;3.63;1.55;;;;;17.60;100913.00;;;;5033375;28;20192;-84
2022/01/02 07:47:24;;;;;;;2.33;1.25;;;;;17.60;100924.00;;;;5032088;28;20204;-84
2022/01/02 07:49:51;;;;;;;2.95;1.15;;;;;17.60;100933.00;;;;5032478;28;20379;-84
2022/01/02 07:52:18;;;;;;;1.58;0.98;;;;;17.60;100954.00;;;;5032088;28;20192;-84
2022/01/02 07:54:46;;;;;;;2.53;1.30;;;;;17.60;100943.00;;;;5031719;28;20207;-84
2022/01/02 07:57:14;;;;;;;1.35;1.05;;;;;17.60;100940.00;;;;5032532;28;20219;-84
2022/01/02 07:59:41;;;;;;;1.90;1.20;;;;;17.60;100940.00;;;;5032112;28;20228;-84
2022/01/02 08:02:08;;;;;;;3.70;1.48;;;;;17.60;100935.00;;;;5032265;28;20220;-84
2022/01/02 08:04:38;;;;;;;2.65;1.10;;;;;17.50;100950.00;;;;5031946;28;20212;-84
2022/01/02 08:07:05;;;;;;;2.17;0.90;;;;;17.50;100942.00;;;;5032338;28;20250;-85
2022/01/02 08:09:33;;;;;;;3.10;1.35;;;;;17.50;100943.00;;;;5031865;28;20678;-84
2022/01/02 08:12:00;;;;;;;3.33;1.40;;;;;17.50;100938.00;;;;5032009;28;20196;-85
2022/01/02 08:14:27;;;;;;;4.72;1.55;;;;;17.50;100937.00;;;;5031690;28;20200;-84
2022/01/02 08:16:54;;;;;;;2.25;1.42;;;;;17.50;100940.00;;;;5047815;28;20600;-83
2022/01/02 08:19:22;;;;;;;2.17;1.02;;;;;17.50;100942.00;;;;5051597;28;20223;-84
2022/01/02 08:21:50;;;;;;;4.43;0.93;;;;;17.40;100940.00;;;;5051810;28;20202;-84
2022/01/02 08:24:17;;;;;;;4.38;1.20;;;;;17.40;100938.00;;;;5050981;28;20196;-84
2022/01/02 08:26:46;;;;;;;2.70;1.50;;;;;17.40;100935.00;;;;5051085;28;20208;-84
2022/01/02 08:29:13;;;;;;;3.10;1.20;;;;;17.50;100933.00;;;;5051753;28;20269;-84
2022/01/02 08:31:41;;;;;;;8.50;2.15;;;;;17.40;100934.00;;;;5050505;28;20704;-84
2022/01/02 08:34:08;;;;;;;1.92;1.27;;;;;17.40;100932.00;;;;5032492;28;20204;-84
2022/01/02 08:36:35;;;;;;;4.47;1.80;;;;;17.40;100931.00;;;;5031249;28;20197;-84
2022/01/02 08:39:04;;;;;;;2.20;1.10;;;;;17.40;100926.00;;;;5031453;28;20192;-83
2022/01/02 08:41:31;;;;;;;1.52;1.20;;;;;17.50;100916.00;;;;5031055;28;20216;-83
2022/01/02 08:43:59;;;;;;;1.65;1.30;;;;;17.50;100930.00;;;;5031845;28;20196;-84
2022/01/02 08:46:26;;;;;;;2.13;1.40;;;;;17.50;100918.00;;;;5030738;28;20204;-83
2022/01/02 08:48:53;;;;;;;2.55;1.38;;;;;17.40;100914.00;;;;5032265;28;20207;-83
2022/01/02 08:51:20;;;;;;;3.80;1.65;;;;;17.50;100913.00;;;;5031553;28;20188;-83
2022/01/02 08:53:48;;;;;;;4.80;1.65;;;;;17.50;100910.00;;;;5030175;28;20924;-84
2022/01/02 08:56:16;;;;;;;2.42;1.50;;;;;17.40;100903.00;;;;5030842;28;20211;-84
2022/01/02 08:58:44;;;;;;;3.05;1.17;;;;;17.50;100899.00;;;;5030834;28;20208;-84
2022/01/02 09:01:11;;;;;;;3.97;1.50;;;;;17.40;100898.00;;;;5028742;28;20238;-84
2022/01/02 09:03:38;;;;;;;4.30;2.05;;;;;17.40;100909.00;;;;5030458;28;20200;-84
2022/01/02 09:06:05;;;;;;;1.75;1.23;;;;;17.40;100920.00;;;;5030994;28;20693;-83
2022/01/02 09:08:33;;;;;;;1.55;1.17;;;;;17.40;100912.00;;;;5030724;28;20207;-84
2022/01/02 09:11:00;;;;;;;2.78;1.70;;;;;17.40;100923.00;;;;5031017;28;20682;-83
2022/01/02 09:13:29;;;;;;;1.98;1.42;;;;;17.40;100919.00;;;;5030305;28;20208;-83
2022/01/02 09:15:56;;;;;;;2.65;1.88;;;;;17.40;100911.00;;;;5030573;28;20196;-84
2022/01/02 09:18:23;;;;;;;4.57;2.10;;;;;17.40;100916.00;;;;5030273;28;20211;-84
2022/01/02 09:20:51;;;;;;;4.65;1.75;;;;;17.40;100898.00;;;;5030610;28;20228;-83
2022/01/02 09:23:18;;;;;;;4.65;1.90;;;;;17.40;100908.00;;;;5030172;28;20211;-84
2022/01/02 09:25:45;;;;;;;3.85;1.65;;;;;17.40;100897.00;;;;5029519;28;20204;-85
2022/01/02 09:28:13;;;;;;;2.65;1.80;;;;;17.40;100900.00;;;;5029401;28;20204;-84
2022/01/02 09:30:41;;;;;;;3.47;2.15;;;;;17.40;100906.00;;;;5033942;28;20204;-83
2022/01/02 09:33:09;;;;;;;2.28;1.73;;;;;17.40;100904.00;;;;5049651;28;20224;-84
2022/01/02 09:35:38;;;;;;;3.80;2.30;;;;;17.40;100903.00;;;;5048953;28;20265;-83
2022/01/02 09:38:05;;;;;;;5.90;2.30;;;;;17.40;100900.00;;;;5049787;28;20203;-83
2022/01/02 09:40:33;;;;;;;4.43;2.25;;;;;17.40;100898.00;;;;5043696;28;20228;-84
2022/01/02 09:43:02;;;;;;;2.92;2.13;;;;;17.30;100900.00;;;;5029964;28;20278;-84
2022/01/02 09:45:33;;;;;;;2.65;2.17;;;;;17.30;100907.00;;;;5029514;28;20269;-85
2022/01/02 09:48:04;;;;;;;3.20;2.15;;;;;17.30;100912.00;;;;5029498;28;20627;-84
2022/01/02 09:50:32;;;;;;;2.70;2.08;;;;;17.30;100920.00;;;;5028036;28;20642;-84
2022/01/02 09:53:00;;;;;;;5.38;1.95;;;;;17.30;100912.00;;;;5029213;28;20239;-84
2022/01/02 09:55:27;;;;;;;2.88;2.38;;;;;17.30;100917.00;;;;5030405;28;20219;-84
2022/01/02 09:57:58;;;;;;;2.70;2.38;;;;;17.30;100913.00;;;;5030900;28;20204;-85
2022/01/02 10:00:26;;;;;;;4.25;2.50;;;;;17.30;100920.00;;;;5029834;28;20318;-84
2022/01/02 10:03:03;;;;;;;3.95;2.85;;;;;17.30;100910.00;;;;5029852;28;20216;-84
2022/01/02 10:05:48;;;;;;;4.63;2.92;;;;;17.40;100910.00;;;;5029133;28;20200;-85
2022/01/02 10:08:21;;;;;;;5.05;3.15;;;;;17.40;100922.00;;;;5028034;28;20211;-84
2022/01/02 10:10:48;;;;;;;4.07;2.53;;;;;17.50;100913.00;;;;5029443;28;20238;-84
2022/01/02 10:13:15;;;;;;;3.95;2.60;;;;;17.50;100923.00;;;;5029404;28;20663;-84
2022/01/02 10:15:43;;;;;;;4.88;2.80;;;;;17.50;100915.00;;;;5044114;28;20211;-85
2022/01/02 10:18:13;;;;;;;5.35;2.90;;;;;17.60;100903.00;;;;5049078;28;20285;-83
2022/01/02 10:20:42;;;;;;;4.90;2.42;;;;;17.60;100906.00;;;;5049561;28;20230;-84
2022/01/02 10:23:16;;;;;;;5.47;2.88;;;;;17.60;100891.00;;;;5048807;28;20210;-84
2022/01/02 10:25:53;;;;;;;3.78;2.58;;;;;17.60;100894.00;;;;5049445;28;20284;-84
2022/01/02 10:28:30;;;;;;;4.25;2.55;;;;;17.70;100890.00;;;;5049337;28;20212;-85
2022/01/02 10:31:01;;;;;;;4.72;2.75;;;;;17.80;100901.00;;;;5048304;28;20207;-86
2022/01/02 10:33:46;;;;;;;3.72;2.60;;;;;17.80;100908.00;;;;5028958;28;20200;-85
2022/01/02 10:36:14;;;;;;;5.35;2.65;;;;;17.80;100900.00;;;;5028996;28;20554;-84
2022/01/02 10:39:00;;;;;;;2.33;2.13;;;;;17.80;100904.00;;;;5035752;28;20666;-82
2022/01/02 10:41:33;;;;;;;3.15;2.00;;;;;17.90;100897.00;;;;5048541;28;20712;-84
2022/01/02 10:44:19;;;;;;;2.83;2.17;;;;;17.80;100898.00;;;;5049205;28;20239;-85
2022/01/02 10:47:07;;;;;;;4.53;2.40;;;;;17.80;100904.00;;;;5048539;28;20204;-85
2022/01/02 10:49:50;;;;;;;4.60;2.40;;;;;17.90;100908.00;;;;5034678;28;20299;-85
2022/01/02 10:52:19;;;;;;;3.92;2.10;;;;;18.00;100908.00;;;;5028835;28;20211;-84
2022/01/02 10:54:46;;;;;;;4.15;2.35;;;;;18.00;100904.00;;;;5029269;28;20200;-85
2022/01/02 10:57:14;;;;;;;4.40;2.08;;;;;18.00;100904.00;;;;5028518;28;20208;-84
2022/01/02 10:59:42;;;;;;;3.60;2.55;;;;;18.00;100898.00;;;;5028739;28;20211;-84
2022/01/02 11:02:11;;;;;;;4.43;2.97;;;;;18.00;100890.00;;;;5028199;28;20266;-84
2022/01/02 11:04:43;;;;;;;4.53;2.30;;;;;18.00;100896.00;;;;5028860;28;20196;-83
2022/01/02 11:07:13;;;;;;;4.93;2.17;;;;;18.00;100895.00;;;;5045115;28;20199;-83
2022/01/02 11:09:41;;;;;;;4.57;2.08;;;;;18.00;100902.00;;;;5048626;28;20624;-85
2022/01/02 11:12:09;;;;;;;5.13;2.60;;;;;18.00;100895.00;;;;5048989;28;20199;-84
2022/01/02 11:14:36;;;;;;;5.00;2.55;;;;;18.00;100906.00;;;;5048152;28;20204;-83
2022/01/02 11:17:04;;;;;;;11.15;3.05;;;;;18.00;100909.00;;;;5048217;28;20234;-84
2022/01/02 11:19:31;;;;;;;3.05;2.30;;;;;18.00;100908.00;;;;5048099;28;20207;-84
2022/01/02 11:22:01;;;;;;;2.20;1.90;;;;;18.00;100909.00;;;;5047550;28;20735;-84
2022/01/02 11:24:38;;;;;;;2.60;1.67;;;;;18.00;100911.00;;;;5028385;28;20204;-84
2022/01/02 11:27:13;;;;;;;6.28;2.13;;;;;18.00;100910.00;;;;5028616;28;20310;-84
2022/01/02 11:29:40;;;;;;;4.18;2.33;;;;;18.00;100913.00;;;;5028647;28;20195;-85
2022/01/02 11:32:22;;;;;;;4.38;2.15;;;;;17.90;100909.00;;;;5044697;28;20203;-84
2022/01/02 11:34:50;;;;;;;3.63;2.20;;;;;18.00;100919.00;;;;5048918;28;20195;-85
2022/01/02 11:37:23;;;;;;;3.28;2.03;;;;;18.00;100915.00;;;;5047864;28;20203;-84
2022/01/02 11:40:00;;;;;;;3.63;2.10;;;;;17.90;100918.00;;;;5040527;28;20663;-84
2022/01/02 11:42:45;;;;;;;4.25;2.38;;;;;17.90;100906.00;;;;5028340;28;20196;-84
2022/01/02 11:45:41;;;;;;;4.95;2.13;;;;;17.90;100919.00;;;;5029147;28;20626;-84
2022/01/02 11:48:28;;;;;;;6.05;2.13;;;;;17.90;100920.00;;;;5028587;28;20238;-85
2022/01/02 11:50:56;;;;;;;5.72;2.85;;;;;18.00;100926.00;;;;5044874;28;20672;-84
2022/01/02 11:53:25;;;;;;;5.15;2.13;;;;;18.10;100922.00;;;;5048320;28;20200;-85
2022/01/02 11:55:54;;;;;;;5.65;2.45;;;;;18.10;100917.00;;;;5048379;28;20283;-84
2022/01/02 11:58:47;;;;;;;5.45;2.50;;;;;18.00;100924.00;;;;5028048;28;20559;-85
2022/01/02 12:01:49;;;;;;;5.72;2.00;;;;;18.00;100922.00;;;;5028135;28;20250;-85
2022/01/02 12:04:16;;;;;;;5.18;1.50;;;;;18.10;100912.00;;;;5028596;28;20210;-84
2022/01/02 12:06:45;;;;;;;3.08;1.58;;;;;18.20;100915.00;;;;5043759;28;20199;-85
2022/01/02 12:09:42;;;;;;;6.40;1.70;;;;;18.10;100909.00;;;;5047656;28;20291;-85
2022/01/02 12:12:09;;;;;;;4.53;2.00;;;;;18.20;100894.00;;;;5005723;28;20209;-85
2022/01/02 12:14:56;;;;;;;4.90;2.28;;;;;18.10;100902.00;;;;5039323;28;20206;-85
2022/01/02 12:17:25;;;;;;;3.90;1.80;;;;;18.20;100904.00;;;;5052089;28;20230;-84
2022/01/02 12:20:00;;;;;;;4.88;1.65;;;;;18.20;100888.00;;;;5051742;28;20701;-84
2022/01/02 12:22:48;;;;;;;3.75;1.40;;;;;18.10;100905.00;;;;5049459;28;20207;-85